createdAt,value
2023-12-07T00:00:30.038Z,74.68
2023-12-07T00:03:18.827Z,72.68
2023-12-07T00:05:48.094Z,70.55
2023-12-07T00:08:16.578Z,68.05
2023-12-07T00:10:45.323Z,69.13
2023-12-07T00:13:13.926Z,68.90
2023-12-07T00:15:42.979Z,69.05
2023-12-07T00:18:11.441Z,70.35
2023-12-07T00:20:40.759Z,71.35
2023-12-07T00:23:09.024Z,75.20
2023-12-07T00:25:38.745Z,70.80
2023-12-07T00:28:07.013Z,73.50
2023-12-07T00:30:35.631Z,69.45
2023-12-07T00:33:04.409Z,69.07
2023-12-07T00:35:33.438Z,66.50
2023-12-07T00:38:02.077Z,69.10
2023-12-07T00:40:31.084Z,68.03
2023-12-07T00:42:59.722Z,66.38
2023-12-07T00:45:28.664Z,69.70
2023-12-07T00:47:57.027Z,63.95
2023-12-07T00:50:26.025Z,62.80
2023-12-07T00:52:54.389Z,68.60
2023-12-07T00:55:23.058Z,71.15
2023-12-07T00:57:51.530Z,75.10
2023-12-07T01:00:20.325Z,70.10
2023-12-07T01:02:48.620Z,68.15
2023-12-07T01:05:18.125Z,63.95
2023-12-07T01:07:46.541Z,67.15
2023-12-07T01:10:15.562Z,58.17
2023-12-07T01:12:43.903Z,61.35
2023-12-07T01:15:12.665Z,65.05
2023-12-07T01:17:41.141Z,62.42
2023-12-07T01:20:13.914Z,69.43
2023-12-07T01:22:42.997Z,62.42
2023-12-07T01:25:11.822Z,65.40
2023-12-07T01:27:40.417Z,65.03
2023-12-07T01:30:09.552Z,61.75
2023-12-07T01:32:37.911Z,65.47
2023-12-07T01:35:07.309Z,65.13
2023-12-07T01:37:36.974Z,62.65
2023-12-07T01:40:12.330Z,60.85
2023-12-07T01:42:41.179Z,62.80
2023-12-07T01:45:09.873Z,64.97
2023-12-07T01:47:39.581Z,63.78
2023-12-07T01:50:09.615Z,65.85
2023-12-07T01:52:44.391Z,65.85
2023-12-07T01:55:14.494Z,65.97
2023-12-07T01:57:45.760Z,63.80
2023-12-07T02:00:15.541Z,70.75
2023-12-07T02:02:46.617Z,64.70
2023-12-07T02:05:15.936Z,62.50
2023-12-07T02:07:45.085Z,60.58
2023-12-07T02:10:17.215Z,61.05
2023-12-07T02:12:46.723Z,62.80
2023-12-07T02:15:15.755Z,61.90
2023-12-07T02:17:59.376Z,60.97
2023-12-07T02:20:36.476Z,64.47
2023-12-07T02:23:08.394Z,60.90
2023-12-07T02:26:04.357Z,63.67
2023-12-07T02:28:32.686Z,58.03
2023-12-07T02:31:01.323Z,66.18
2023-12-07T02:33:30.110Z,62.60
2023-12-07T02:35:58.810Z,62.17
2023-12-07T02:38:29.618Z,67.25
2023-12-07T02:41:00.263Z,70.05
2023-12-07T02:43:29.492Z,72.20
2023-12-07T02:45:58.352Z,69.60
2023-12-07T02:48:27.529Z,72.80
2023-12-07T02:50:56.398Z,65.47
2023-12-07T02:53:24.799Z,66.07
2023-12-07T02:55:53.511Z,66.30
2023-12-07T02:58:21.862Z,64.90
2023-12-07T03:00:51.121Z,65.40
2023-12-07T03:03:19.448Z,63.38
2023-12-07T03:05:48.071Z,75.43
2023-12-07T03:08:16.582Z,74.10
2023-12-07T03:10:45.118Z,76.05
2023-12-07T03:13:13.498Z,74.15
2023-12-07T03:15:42.608Z,72.28
2023-12-07T03:18:11.469Z,69.15
2023-12-07T03:20:40.113Z,72.32
2023-12-07T03:23:08.490Z,67.90
2023-12-07T03:25:37.297Z,64.10
2023-12-07T03:28:05.868Z,65.78
2023-12-07T03:30:34.945Z,68.47
2023-12-07T03:33:03.337Z,72.93
2023-12-07T03:35:32.183Z,63.60
2023-12-07T03:38:00.590Z,70.70
2023-12-07T03:40:29.323Z,72.72
2023-12-07T03:42:57.782Z,66.65
2023-12-07T03:45:26.969Z,71.95
2023-12-07T03:47:55.329Z,68.05
2023-12-07T03:50:23.989Z,66.43
2023-12-07T03:52:52.392Z,64.25
2023-12-07T03:55:21.087Z,68.60
2023-12-07T03:57:49.513Z,64.90
2023-12-07T04:00:18.292Z,68.35
2023-12-07T04:02:46.536Z,66.68
2023-12-07T04:05:15.840Z,62.92
2023-12-07T04:07:44.209Z,69.28
2023-12-07T04:10:13.081Z,69.50
2023-12-07T04:12:41.752Z,66.78
2023-12-07T04:15:11.064Z,71.50
2023-12-07T04:17:39.405Z,73.10
2023-12-07T04:20:08.976Z,77.53
2023-12-07T04:22:37.743Z,78.05
2023-12-07T04:25:07.419Z,75.93
2023-12-07T04:27:35.675Z,81.82
2023-12-07T04:30:06.371Z,80.53
2023-12-07T04:32:34.734Z,68.43
2023-12-07T04:35:03.433Z,69.15
2023-12-07T04:37:31.816Z,69.10
2023-12-07T04:40:00.480Z,66.38
2023-12-07T04:42:28.763Z,69.38
2023-12-07T04:44:57.466Z,67.15
2023-12-07T04:47:26.110Z,69.30
2023-12-07T04:49:55.031Z,69.30
2023-12-07T04:52:23.688Z,74.13
2023-12-07T04:54:52.529Z,75.07
2023-12-07T04:57:20.911Z,74.35
2023-12-07T04:59:49.866Z,70.70
2023-12-07T05:02:19.849Z,72.82
2023-12-07T05:04:48.719Z,73.60
2023-12-07T05:07:18.372Z,91.75
2023-12-07T05:09:47.387Z,105.30
2023-12-07T05:12:16.125Z,110.55
2023-12-07T05:14:44.960Z,86.07
2023-12-07T05:17:13.306Z,72.50
2023-12-07T05:19:42.307Z,72.63
2023-12-07T05:22:11.325Z,67.57
2023-12-07T05:24:40.062Z,70.53
2023-12-07T05:27:08.469Z,73.70
2023-12-07T05:29:39.743Z,73.25
2023-12-07T05:32:08.241Z,72.72
2023-12-07T05:34:37.220Z,72.97
2023-12-07T05:37:05.744Z,76.25
2023-12-07T05:39:34.782Z,64.07
2023-12-07T05:42:05.680Z,72.05
2023-12-07T05:44:34.804Z,72.95
2023-12-07T05:47:03.310Z,78.75
2023-12-07T05:49:32.069Z,79.38
2023-12-07T05:52:00.688Z,92.68
2023-12-07T05:54:29.488Z,98.78
2023-12-07T05:56:57.844Z,100.00
2023-12-07T05:59:27.409Z,79.32
2023-12-07T06:01:55.894Z,76.90
2023-12-07T06:04:24.630Z,73.13
2023-12-07T06:06:53.129Z,74.95
2023-12-07T06:09:21.883Z,72.72
2023-12-07T06:11:50.278Z,71.85
2023-12-07T06:14:19.086Z,71.30
2023-12-07T06:16:47.675Z,65.07
2023-12-07T06:19:19.621Z,66.10
2023-12-07T06:21:48.406Z,62.78
2023-12-07T06:24:17.067Z,69.97
2023-12-07T06:26:45.758Z,69.05
2023-12-07T06:29:15.189Z,63.90
2023-12-07T06:31:46.777Z,65.57
2023-12-07T06:34:17.903Z,70.05
2023-12-07T06:36:46.673Z,68.65
2023-12-07T06:39:15.775Z,67.70
2023-12-07T06:41:44.406Z,69.70
2023-12-07T06:44:13.252Z,69.72
2023-12-07T06:46:42.013Z,68.95
2023-12-07T06:49:11.314Z,68.63
2023-12-07T06:51:40.077Z,64.75
2023-12-07T06:54:09.002Z,65.50
2023-12-07T06:56:37.275Z,66.03
2023-12-07T06:59:06.207Z,64.20
2023-12-07T07:01:35.093Z,70.47
2023-12-07T07:04:04.007Z,68.88
2023-12-07T07:06:32.787Z,67.43
2023-12-07T07:09:01.714Z,62.90
2023-12-07T07:11:30.275Z,76.28
2023-12-07T07:13:59.053Z,77.22
2023-12-07T07:16:27.525Z,84.90
2023-12-07T07:18:56.307Z,84.72
2023-12-07T07:21:24.859Z,85.95
2023-12-07T07:23:53.711Z,75.47
2023-12-07T07:26:22.197Z,85.15
2023-12-07T07:28:51.584Z,83.50
2023-12-07T07:31:20.317Z,84.15
2023-12-07T07:33:49.429Z,72.78
2023-12-07T07:36:29.307Z,74.03
2023-12-07T07:38:58.255Z,76.63
2023-12-07T07:41:27.061Z,75.38
2023-12-07T07:43:56.650Z,88.93
2023-12-07T07:46:26.185Z,98.07
2023-12-07T07:48:56.760Z,104.10
2023-12-07T07:51:25.461Z,133.73
2023-12-07T07:53:56.973Z,129.93
2023-12-07T07:56:26.657Z,135.50
2023-12-07T07:58:55.516Z,120.00
2023-12-07T08:01:23.814Z,124.28
2023-12-07T08:03:52.681Z,97.65
2023-12-07T08:06:21.076Z,89.53
2023-12-07T08:08:51.011Z,86.25
2023-12-07T08:11:19.547Z,80.80
2023-12-07T08:13:49.296Z,75.85
2023-12-07T08:16:17.680Z,73.07
2023-12-07T08:18:46.260Z,72.63
2023-12-07T08:21:32.805Z,72.20
2023-12-07T08:24:01.446Z,69.65
2023-12-07T08:26:29.983Z,73.30
2023-12-07T08:28:59.244Z,71.50
2023-12-07T08:31:27.687Z,67.50
2023-12-07T08:33:56.966Z,64.70
2023-12-07T08:36:25.704Z,64.38
2023-12-07T08:38:55.460Z,71.05
2023-12-07T08:41:24.898Z,77.90
2023-12-07T08:43:53.775Z,71.30
2023-12-07T08:46:22.231Z,71.13
2023-12-07T08:48:50.959Z,64.88
2023-12-07T08:51:19.291Z,68.05
2023-12-07T08:53:50.784Z,66.30
2023-12-07T08:56:21.299Z,60.13
2023-12-07T08:58:50.168Z,66.80
2023-12-07T09:01:26.201Z,66.45
2023-12-07T09:04:01.708Z,58.10
2023-12-07T09:06:30.913Z,61.60
2023-12-07T09:08:59.758Z,62.50
2023-12-07T09:11:29.164Z,60.20
2023-12-07T09:13:58.664Z,58.47
2023-12-07T09:16:27.931Z,57.28
2023-12-07T09:18:57.235Z,61.42
2023-12-07T09:21:26.182Z,59.13
2023-12-07T09:23:55.089Z,68.13
2023-12-07T09:26:23.398Z,61.90
2023-12-07T09:28:53.830Z,56.47
2023-12-07T09:31:24.011Z,60.22
2023-12-07T09:33:55.296Z,63.50
2023-12-07T09:36:25.489Z,66.78
2023-12-07T09:38:54.414Z,61.00
2023-12-07T09:41:25.463Z,61.97
2023-12-07T09:43:54.253Z,63.95
2023-12-07T09:46:22.818Z,61.72
2023-12-07T09:48:52.452Z,65.97
2023-12-07T09:51:22.012Z,63.88
2023-12-07T09:53:54.650Z,53.72
2023-12-07T09:56:23.449Z,59.92
2023-12-07T09:58:52.408Z,67.30
2023-12-07T10:01:20.864Z,67.28
2023-12-07T10:03:49.906Z,76.30
2023-12-07T10:06:18.494Z,70.95
2023-12-07T10:08:48.563Z,72.50
2023-12-07T10:11:17.313Z,66.60
2023-12-07T10:13:46.359Z,59.78
2023-12-07T10:16:17.502Z,60.45
2023-12-07T10:18:47.032Z,63.70
2023-12-07T10:21:16.167Z,60.08
2023-12-07T10:23:49.071Z,61.03
2023-12-07T10:26:21.191Z,59.88
2023-12-07T10:28:56.271Z,58.55
2023-12-07T10:31:25.682Z,69.95
2023-12-07T10:33:55.311Z,62.17
2023-12-07T10:36:25.442Z,62.47
2023-12-07T10:38:54.925Z,63.42
2023-12-07T10:41:25.724Z,62.88
2023-12-07T10:43:59.967Z,60.97
2023-12-07T10:46:29.211Z,63.00
2023-12-07T10:49:05.093Z,56.67
2023-12-07T10:51:41.648Z,58.33
2023-12-07T10:54:15.628Z,54.45
2023-12-07T10:56:47.828Z,57.10
2023-12-07T10:59:23.927Z,68.07
2023-12-07T11:01:59.642Z,55.78
2023-12-07T11:04:30.843Z,61.10
2023-12-07T11:07:08.266Z,55.28
2023-12-07T11:09:43.956Z,52.63
2023-12-07T11:12:36.540Z,61.28
2023-12-07T11:15:06.728Z,56.60
2023-12-07T11:17:57.840Z,64.82
2023-12-07T11:20:48.152Z,50.63
2023-12-07T11:23:21.235Z,54.28
2023-12-07T11:25:52.166Z,60.78
2023-12-07T11:28:36.225Z,55.45
2023-12-07T11:31:05.278Z,54.00
2023-12-07T11:33:33.902Z,57.78
2023-12-07T11:36:10.697Z,52.95
2023-12-07T11:38:40.632Z,62.38
2023-12-07T11:41:11.189Z,57.97
2023-12-07T11:43:45.098Z,56.25
2023-12-07T11:46:15.549Z,59.20
2023-12-07T11:48:49.561Z,56.55
2023-12-07T11:51:19.203Z,58.80
2023-12-07T11:53:49.920Z,63.83
2023-12-07T11:56:22.908Z,61.42
2023-12-07T11:58:52.087Z,59.15
2023-12-07T12:05:16.187Z,65.13
2023-12-07T12:07:44.634Z,61.35
2023-12-07T12:10:14.171Z,58.78
2023-12-07T12:12:42.717Z,59.58
2023-12-07T12:15:11.884Z,51.80
2023-12-07T12:17:40.391Z,60.28
2023-12-07T12:20:11.838Z,55.40
2023-12-07T12:22:40.415Z,58.03
2023-12-07T12:25:09.927Z,63.63
2023-12-07T12:27:38.903Z,59.78
2023-12-07T12:30:08.362Z,58.45
2023-12-07T12:32:47.391Z,61.13
2023-12-07T12:35:16.801Z,60.92
2023-12-07T12:37:47.200Z,62.85
2023-12-07T12:40:20.098Z,70.53
2023-12-07T12:42:53.503Z,66.70
2023-12-07T12:45:23.747Z,61.63
2023-12-07T12:47:52.577Z,58.33
2023-12-07T12:50:42.040Z,57.97
2023-12-07T12:53:12.231Z,63.97
2023-12-07T12:55:42.821Z,66.10
2023-12-07T12:58:11.718Z,71.03
2023-12-07T13:00:42.353Z,68.68
2023-12-07T13:03:11.547Z,61.08
2023-12-07T13:05:40.778Z,60.72
2023-12-07T13:08:14.669Z,63.33
2023-12-07T13:10:43.978Z,60.60
2023-12-07T13:13:12.491Z,61.47
2023-12-07T13:15:41.253Z,66.00
2023-12-07T13:18:09.817Z,63.60
2023-12-07T13:20:49.398Z,70.00
2023-12-07T13:23:24.082Z,72.60
2023-12-07T13:25:53.043Z,70.25
2023-12-07T13:28:21.597Z,71.75
2023-12-07T13:30:54.230Z,73.43
2023-12-07T13:33:28.111Z,78.38
2023-12-07T13:36:05.285Z,70.53
2023-12-07T13:38:36.074Z,64.05
2023-12-07T13:41:05.132Z,69.45
2023-12-07T13:43:35.077Z,70.00
2023-12-07T13:46:03.946Z,66.80
2023-12-07T13:48:32.364Z,79.32
2023-12-07T13:51:01.049Z,108.57
2023-12-07T13:53:29.371Z,105.97
2023-12-07T13:56:02.865Z,105.80
2023-12-07T13:58:32.016Z,106.28
2023-12-07T14:01:00.679Z,108.32
2023-12-07T14:03:29.246Z,115.93
2023-12-07T14:05:58.943Z,83.47
2023-12-07T14:08:28.225Z,72.95
2023-12-07T14:10:56.953Z,80.88
2023-12-07T14:13:27.298Z,80.20
2023-12-07T14:16:02.807Z,79.87
2023-12-07T14:21:54.564Z,82.53
2023-12-07T14:24:28.084Z,87.78
2023-12-07T14:27:01.843Z,85.93
2023-12-07T14:30:53.734Z,83.22
2023-12-07T14:33:50.554Z,92.75
2023-12-07T14:37:39.699Z,90.32
2023-12-07T14:40:27.555Z,100.82
2023-12-07T14:42:55.928Z,93.78
2023-12-07T14:49:25.097Z,121.03
2023-12-07T14:52:55.004Z,125.32
2023-12-07T14:56:11.519Z,131.25
2023-12-07T15:00:01.022Z,114.70
2023-12-07T15:02:55.332Z,113.72
2023-12-07T15:05:23.913Z,128.23
2023-12-07T15:07:52.649Z,125.07
2023-12-07T15:10:21.132Z,116.63
2023-12-07T15:12:49.797Z,120.40
2023-12-07T15:15:19.388Z,119.60
2023-12-07T15:17:51.389Z,114.85
2023-12-07T15:22:49.101Z,104.97
2023-12-07T15:25:18.730Z,127.53
2023-12-07T15:27:48.443Z,139.27
2023-12-07T15:30:17.137Z,139.23
2023-12-07T15:32:55.017Z,138.32
2023-12-07T15:35:23.580Z,125.28
2023-12-07T15:38:18.445Z,126.65
2023-12-07T15:40:46.821Z,184.82
2023-12-07T15:43:15.494Z,155.70
2023-12-07T15:45:43.960Z,141.43
2023-12-07T15:48:16.505Z,146.90
2023-12-07T15:50:57.785Z,119.18
2023-12-07T15:53:26.765Z,106.88
2023-12-07T15:55:55.315Z,103.43
2023-12-07T15:58:24.093Z,104.32
2023-12-07T16:00:52.888Z,97.38
2023-12-07T16:03:21.816Z,90.72
2023-12-07T16:05:50.264Z,89.88
2023-12-07T16:15:40.394Z,88.05
2023-12-07T16:16:28.692Z,81.13
2023-12-07T16:19:11.552Z,81.47
2023-12-07T16:23:09.794Z,83.97
2023-12-07T16:25:59.435Z,98.03
2023-12-07T17:16:22.727Z,99.82
2023-12-07T17:17:13.920Z,106.10
2023-12-07T17:19:48.651Z,98.60
2023-12-07T17:22:29.093Z,114.28
2023-12-07T17:25:01.360Z,104.53
2023-12-07T17:27:29.790Z,106.30
2023-12-07T17:29:58.670Z,127.85
2023-12-07T17:32:28.081Z,165.73
2023-12-07T17:35:00.663Z,200.02
2023-12-07T17:37:29.171Z,192.40
2023-12-07T17:39:58.617Z,188.50
2023-12-07T17:42:27.307Z,174.68
2023-12-07T17:44:56.423Z,177.38
2023-12-07T17:47:27.732Z,185.55
2023-12-07T17:49:57.366Z,211.93
2023-12-07T17:52:25.620Z,203.57
2023-12-07T17:54:54.199Z,172.20
2023-12-07T17:57:22.703Z,167.73
2023-12-07T17:59:51.667Z,168.00
2023-12-07T18:02:20.048Z,166.27
2023-12-07T18:04:48.629Z,161.05
2023-12-07T18:07:22.897Z,158.65
2023-12-07T18:10:19.967Z,155.93
2023-12-07T18:12:48.555Z,164.20
2023-12-07T18:15:19.297Z,153.98
2023-12-07T18:17:55.041Z,139.98
2023-12-07T18:20:24.538Z,131.00
2023-12-07T18:23:21.501Z,114.55
2023-12-07T18:25:50.301Z,115.82
2023-12-07T18:28:19.709Z,112.15
2023-12-07T18:30:48.416Z,111.40
2023-12-07T18:33:16.963Z,105.18
2023-12-07T18:35:46.020Z,105.43
2023-12-07T18:38:14.610Z,106.82
2023-12-07T18:40:44.142Z,105.10
2023-12-07T18:43:13.797Z,88.38
2023-12-07T18:45:45.317Z,87.57
2023-12-07T18:48:14.101Z,84.88
2023-12-07T18:50:43.007Z,78.70
2023-12-07T18:53:11.361Z,81.90
2023-12-07T18:55:40.779Z,80.05
2023-12-07T18:58:09.049Z,80.85
2023-12-07T19:00:37.750Z,79.20
2023-12-07T19:03:06.253Z,82.80
2023-12-07T19:05:35.627Z,83.78
2023-12-07T19:08:04.109Z,81.65
2023-12-07T19:10:32.908Z,88.20
2023-12-07T19:13:02.520Z,87.18
2023-12-07T19:15:31.540Z,87.40
2023-12-07T19:18:01.658Z,95.20
2023-12-07T19:20:30.589Z,95.47
2023-12-07T19:23:00.161Z,97.40
2023-12-07T19:25:28.896Z,106.13
2023-12-07T19:27:57.450Z,107.90
2023-12-07T19:30:28.391Z,104.45
2023-12-07T19:33:01.441Z,114.60
2023-12-07T19:35:31.178Z,122.15
2023-12-07T19:37:59.645Z,115.38
2023-12-07T19:40:28.700Z,107.25
2023-12-07T19:43:37.595Z,105.68
2023-12-07T19:46:06.540Z,109.88
2023-12-07T19:48:45.996Z,124.85
2023-12-07T19:51:20.532Z,129.68
2023-12-07T19:53:49.350Z,159.32
2023-12-07T19:56:25.072Z,172.18
2023-12-07T19:58:56.635Z,171.90
2023-12-07T20:01:30.550Z,150.73
2023-12-07T20:04:01.388Z,152.20
2023-12-07T20:10:03.820Z,131.55
2023-12-07T20:12:48.522Z,117.38
2023-12-07T20:15:22.446Z,116.20
2023-12-07T20:20:18.707Z,106.18
2023-12-07T20:27:19.297Z,95.00
2023-12-07T20:30:00.942Z,96.35
2023-12-07T20:35:10.332Z,128.90
2023-12-07T20:36:02.199Z,90.85
2023-12-07T20:38:30.937Z,84.85
2023-12-07T20:41:00.020Z,79.03
2023-12-07T20:49:50.265Z,69.45
2023-12-07T20:52:20.697Z,71.32
2023-12-07T20:54:49.303Z,74.90
2023-12-07T20:57:20.222Z,76.00
2023-12-07T20:59:48.957Z,78.18
2023-12-07T21:02:23.883Z,83.25
2023-12-07T21:04:56.632Z,86.47
2023-12-07T21:07:32.735Z,82.97
2023-12-07T21:10:01.581Z,89.90
2023-12-07T21:12:30.611Z,89.78
2023-12-07T21:15:22.201Z,98.65
2023-12-07T21:17:50.976Z,98.47
2023-12-07T21:20:19.683Z,103.72
2023-12-07T21:22:49.684Z,99.22
2023-12-07T21:25:18.495Z,101.90
2023-12-07T21:27:50.936Z,87.75
2023-12-07T21:30:20.039Z,88.57
2023-12-07T21:32:49.318Z,82.85
2023-12-07T21:35:18.002Z,92.53
2023-12-07T21:37:47.368Z,100.55
2023-12-07T21:40:16.208Z,102.68
2023-12-07T21:42:46.261Z,104.93
2023-12-07T21:45:14.792Z,95.55
2023-12-07T21:47:43.714Z,96.38
2023-12-07T21:50:12.185Z,90.28
2023-12-07T21:53:06.252Z,91.10
2023-12-07T21:55:34.577Z,85.68
2023-12-07T21:58:03.676Z,87.53
2023-12-07T22:00:41.095Z,95.45
2023-12-07T22:03:10.455Z,99.32
2023-12-07T22:05:39.096Z,97.72
2023-12-07T22:08:07.989Z,93.60
2023-12-07T22:10:36.412Z,97.32
2023-12-07T22:13:05.334Z,91.63
2023-12-07T22:15:33.874Z,90.38
2023-12-07T22:18:02.938Z,91.10
2023-12-07T22:20:31.450Z,90.88
2023-12-07T22:23:00.561Z,91.13
2023-12-07T22:25:29.049Z,90.60
2023-12-07T22:27:59.950Z,86.80
2023-12-07T22:30:28.486Z,78.63
2023-12-07T22:32:57.581Z,77.07
2023-12-07T22:35:26.328Z,78.05
2023-12-07T22:37:54.980Z,75.80
2023-12-07T22:40:24.149Z,69.13
2023-12-07T22:42:56.720Z,73.78
2023-12-07T22:45:25.529Z,75.30
2023-12-07T22:47:54.303Z,71.05
2023-12-07T22:50:28.559Z,67.05
2023-12-07T22:56:29.992Z,76.32
2023-12-07T22:58:58.745Z,71.82
2023-12-07T23:01:27.232Z,70.50
2023-12-07T23:03:59.325Z,71.20
2023-12-07T23:06:28.092Z,64.30
2023-12-07T23:08:57.353Z,62.70
2023-12-07T23:11:25.632Z,63.92
2023-12-07T23:13:54.443Z,70.72
2023-12-07T23:16:26.360Z,59.90
2023-12-07T23:19:22.978Z,56.00
2023-12-07T23:21:51.734Z,60.92
2023-12-07T23:24:20.116Z,64.72
2023-12-07T23:26:48.932Z,63.58
2023-12-07T23:29:17.335Z,64.75
2023-12-07T23:31:46.499Z,61.67
2023-12-07T23:34:15.192Z,60.03
2023-12-07T23:36:44.153Z,56.53
2023-12-07T23:39:12.674Z,64.88
2023-12-07T23:41:41.636Z,59.47
2023-12-07T23:44:10.102Z,63.35
2023-12-07T23:46:39.368Z,58.75
2023-12-07T23:49:07.756Z,65.10
2023-12-07T23:51:37.727Z,73.13
2023-12-07T23:54:06.317Z,68.63
2023-12-07T23:56:35.024Z,68.00
2023-12-07T23:59:03.543Z,74.20
